Time;durP1;ratioP1;P1;durP2;ratioP2;P2;SDS_P1;SDS_P2;PMS_P1;PMS_P2;Temp;Humidity;BMP_temperature;BMP_pressure;BME280_temperature;BME280_humidity;BME280_pressure;Samples;Min_cycle;Max_cycle;Signal;HPM_P1;HPM_P2
2021/05/12 00:01:09;;;;;;;11.57;6.03;;;;;;;19.58;55.65;99394.79;3442259;84;33827;-85
2021/05/12 00:06:10;;;;;;;13.93;6.70;;;;;;;19.51;56.74;99393.67;3445957;83;99052;-84
2021/05/12 00:11:11;;;;;;;13.87;6.23;;;;;;;19.48;56.20;99392.42;3448833;84;33442;-85
2021/05/12 00:16:12;;;;;;;12.63;7.00;;;;;;;19.44;56.29;99393.97;3443267;84;98826;-84
2021/05/12 00:21:24;;;;;;;13.35;6.95;;;;;;;19.37;56.50;99392.88;3448767;84;33327;-85
2021/05/12 00:26:15;;;;;;;13.30;7.17;;;;;;;19.36;56.55;99391.94;3438978;83;98932;-85
2021/05/12 00:31:17;;;;;;;15.00;6.97;;;;;;;19.30;56.82;99393.78;3400622;84;27143;-85
2021/05/12 00:36:17;;;;;;;12.20;6.40;;;;;;;19.20;56.83;99383.80;3366771;86;98631;-84
2021/05/12 00:41:18;;;;;;;15.33;6.53;;;;;;;19.22;56.87;99390.50;3375166;86;31766;-85
2021/05/12 00:46:19;;;;;;;11.93;5.97;;;;;;;19.17;57.28;99391.67;3369281;86;98678;-85
2021/05/12 00:51:19;;;;;;;12.13;6.07;;;;;;;19.12;57.56;99386.09;3380603;86;31779;-84
2021/05/12 00:56:20;;;;;;;11.15;5.97;;;;;;;19.09;57.35;99382.84;3388254;85;98684;-85
2021/05/12 01:01:21;;;;;;;14.70;6.30;;;;;;;19.07;57.85;99383.89;3399031;85;29036;-85
2021/05/12 01:06:32;;;;;;;13.22;5.90;;;;;;;19.05;57.59;99388.38;3389332;85;99032;-84
2021/05/12 01:11:33;;;;;;;10.57;6.13;;;;;;;19.02;58.54;99388.67;3391212;85;29088;-85
2021/05/12 01:16:34;;;;;;;13.50;5.73;;;;;;;18.99;57.92;99388.82;3386788;85;98706;-86
2021/05/12 01:21:35;;;;;;;13.20;5.83;;;;;;;18.95;58.17;99383.39;3389257;84;26665;-84
2021/05/12 01:26:37;;;;;;;12.53;6.87;;;;;;;18.92;58.81;99387.08;3379025;85;98809;-85
2021/05/12 01:31:44;;;;;;;11.93;5.80;;;;;;;18.89;58.71;99385.22;3422669;84;29608;-85
2021/05/12 01:36:47;;;;;;;15.43;6.47;;;;;;;18.83;58.86;99380.08;3434347;84;98640;-85
2021/05/12 01:41:48;;;;;;;14.87;7.27;;;;;;;18.78;59.35;99378.50;3437793;84;29044;-87
2021/05/12 01:46:49;;;;;;;17.27;6.78;;;;;;;18.70;59.82;99376.59;3426159;84;98729;-85
2021/05/12 01:51:49;;;;;;;12.70;7.20;;;;;;;18.63;59.81;99372.70;3429264;84;26589;-83
2021/05/12 01:56:50;;;;;;;14.97;6.50;;;;;;;18.60;59.73;99377.02;3433659;83;99020;-84
2021/05/12 02:01:51;;;;;;;14.45;6.45;;;;;;;18.52;60.30;99377.14;3434571;84;26339;-86
2021/05/12 02:06:51;;;;;;;12.00;6.80;;;;;;;18.44;60.12;99378.62;3370939;86;98768;-85
2021/05/12 02:11:52;;;;;;;14.55;6.17;;;;;;;18.37;60.42;99381.04;3441008;84;35216;-84
2021/05/12 02:16:53;;;;;;;13.40;6.97;;;;;;;18.27;61.22;99372.45;3430377;84;98752;-85
2021/05/12 02:21:53;;;;;;;12.98;7.00;;;;;;;18.20;61.07;99375.48;3426870;84;32293;-85
2021/05/12 02:26:54;;;;;;;15.98;6.75;;;;;;;18.12;61.19;99376.98;3429688;83;98892;-86
2021/05/12 02:31:55;;;;;;;13.17;6.53;;;;;;;18.03;61.54;99371.97;3451687;83;28254;-85
2021/05/12 02:36:56;;;;;;;13.25;6.62;;;;;;;17.95;61.52;99363.69;3396196;85;98480;-85
2021/05/12 02:41:57;;;;;;;12.20;6.30;;;;;;;17.85;62.63;99369.80;3382477;84;29421;-85
2021/05/12 02:46:58;;;;;;;12.50;6.93;;;;;;;17.77;62.34;99361.52;3356996;86;98607;-85
2021/05/12 02:51:58;;;;;;;14.07;5.85;;;;;;;17.68;62.75;99357.28;3453183;83;32718;-84
2021/05/12 02:57:00;;;;;;;12.18;6.03;;;;;;;17.61;62.64;99358.14;3443082;84;98384;-86
2021/05/12 03:02:01;;;;;;;15.03;7.20;;;;;;;17.51;62.67;99365.62;3439357;84;30914;-85
2021/05/12 03:07:02;;;;;;;13.90;6.60;;;;;;;17.45;63.03;99365.24;3433903;84;98666;-85
2021/05/12 03:12:04;;;;;;;12.50;6.67;;;;;;;17.36;63.29;99362.33;3441112;83;31831;-85
2021/05/12 03:17:05;;;;;;;12.10;6.10;;;;;;;17.29;63.51;99361.18;3447201;84;98280;-85
2021/05/12 03:22:05;;;;;;;13.72;6.15;;;;;;;17.24;63.54;99363.13;3438914;83;31291;-86
2021/05/12 03:27:07;;;;;;;12.25;5.30;;;;;;;17.19;63.44;99367.86;3436987;84;98983;-86
2021/05/12 03:32:08;;;;;;;11.80;6.20;;;;;;;17.15;63.44;99369.97;3446045;83;28466;-86
2021/05/12 03:37:08;;;;;;;17.40;6.40;;;;;;;17.10;63.53;99371.32;3443406;84;98629;-85
2021/05/12 03:42:09;;;;;;;11.03;5.87;;;;;;;17.08;64.02;99377.16;3399805;85;26183;-86
2021/05/12 03:47:10;;;;;;;13.53;5.67;;;;;;;17.03;63.84;99378.50;3387293;85;98792;-83
2021/05/12 03:52:11;;;;;;;10.50;6.25;;;;;;;17.02;64.94;99373.38;3405676;85;26468;-85
2021/05/12 03:57:11;;;;;;;12.73;6.07;;;;;;;17.03;64.21;99377.11;3442039;84;98793;-86
2021/05/12 04:02:12;;;;;;;11.87;6.10;;;;;;;17.05;63.95;99386.41;3447885;84;31520;-85
2021/05/12 04:07:13;;;;;;;11.60;6.28;;;;;;;17.10;64.00;99383.83;3437137;84;98767;-86
2021/05/12 04:12:13;;;;;;;13.10;6.27;;;;;;;17.14;63.85;99390.66;3441260;84;33877;-86
2021/05/12 04:17:14;;;;;;;11.40;6.23;;;;;;;17.17;63.86;99390.55;3351725;86;98721;-87
2021/05/12 04:22:15;;;;;;;11.20;5.97;;;;;;;17.21;63.90;99395.39;3444678;84;34814;-86
2021/05/12 04:27:17;;;;;;;13.30;6.12;;;;;;;17.25;64.12;99393.28;3398044;85;98840;-86
2021/05/12 04:32:18;;;;;;;12.50;6.50;;;;;;;17.29;64.12;99400.11;3378770;85;33380;-85
2021/05/12 04:37:19;;;;;;;12.20;6.66;;;;;;;17.35;64.05;99394.94;3355696;85;98571;-85
2021/05/12 04:42:19;;;;;;;12.67;6.97;;;;;;;17.41;64.16;99404.30;3448318;84;32235;-86
2021/05/12 04:47:21;;;;;;;13.47;6.40;;;;;;;17.46;64.13;99406.53;3441765;84;98522;-85
2021/05/12 04:52:22;;;;;;;12.93;7.17;;;;;;;17.54;63.82;99403.66;3446610;84;27997;-87
2021/05/12 04:57:23;;;;;;;12.80;6.63;;;;;;;17.60;63.74;99396.93;3443218;83;98802;-86
2021/05/12 05:02:24;;;;;;;16.17;6.93;;;;;;;17.67;63.47;99400.25;3440235;84;31749;-83
2021/05/12 05:07:24;;;;;;;15.27;6.90;;;;;;;17.79;63.58;99395.27;3431523;84;98450;-85
2021/05/12 05:12:25;;;;;;;18.17;8.23;;;;;;;17.91;63.39;99396.43;3450613;84;31744;-86
2021/05/12 05:17:29;;;;;;;14.37;7.80;;;;;;;18.11;63.22;99399.10;3440616;83;98737;-85
2021/05/12 05:22:30;;;;;;;23.57;9.10;;;;;;;18.42;62.90;99395.02;3445532;84;32593;-85
2021/05/12 05:27:31;;;;;;;16.80;7.43;;;;;;;18.87;62.57;99401.64;3440283;84;99089;-84
2021/05/12 05:32:32;;;;;;;34.87;9.27;;;;;;;19.34;61.72;99393.78;3443169;84;31738;-85
2021/05/12 05:37:33;;;;;;;15.30;8.20;;;;;;;19.93;60.91;99393.88;3440802;84;98377;-86
2021/05/12 05:42:34;;;;;;;14.60;8.07;;;;;;;20.71;60.31;99397.58;3446430;84;31807;-86
2021/05/12 05:47:34;;;;;;;23.00;7.77;;;;;;;21.50;58.81;99399.15;3442546;84;98441;-86
2021/05/12 05:52:35;;;;;;;16.23;6.90;;;;;;;22.14;56.70;99396.09;3448557;84;31899;-84
2021/05/12 05:57:36;;;;;;;13.58;7.12;;;;;;;22.73;55.92;99401.16;3437863;84;99114;-86
2021/05/12 06:02:37;;;;;;;16.25;6.30;;;;;;;23.34;53.92;99403.73;3451278;84;32485;-85
2021/05/12 06:07:39;;;;;;;15.00;6.55;;;;;;;23.78;53.13;99412.80;3439875;84;98706;-85
2021/05/12 06:12:39;;;;;;;14.95;7.70;;;;;;;24.19;51.77;99417.16;3443562;84;31845;-85
2021/05/12 06:17:40;;;;;;;22.65;8.10;;;;;;;24.52;50.07;99427.38;3438739;84;98456;-85
2021/05/12 06:22:44;;;;;;;24.87;8.73;;;;;;;24.90;50.27;99429.83;3451859;84;31881;-88
2021/05/12 06:27:45;;;;;;;13.05;6.58;;;;;;;25.25;49.30;99431.84;3442339;84;99001;-84
2021/05/12 06:32:47;;;;;;;13.58;6.60;;;;;;;25.48;47.91;99447.63;3444755;84;32259;-84
2021/05/12 06:37:48;;;;;;;26.85;9.38;;;;;;;25.42;47.22;99444.00;3439413;84;98840;-85
2021/05/12 06:42:48;;;;;;;15.85;7.37;;;;;;;25.55;46.74;99442.17;3448779;84;31946;-84
2021/05/12 06:47:53;;;;;;;14.18;7.53;;;;;;;25.51;46.87;99452.90;3349451;85;98732;-83
2021/05/12 06:52:56;;;;;;;12.63;6.92;;;;;;;25.51;46.59;99452.90;3443827;84;31813;-84
2021/05/12 06:57:57;;;;;;;18.23;6.80;;;;;;;25.46;46.32;99451.59;3438014;84;98706;-83
2021/05/12 07:02:58;;;;;;;15.45;7.58;;;;;;;25.25;46.41;99464.85;3443926;84;32367;-84
2021/05/12 07:07:59;;;;;;;29.05;8.20;;;;;;;24.78;46.42;99468.21;3439679;84;98962;-82
2021/05/12 07:13:00;;;;;;;15.58;8.03;;;;;;;24.46;47.07;99469.39;3444711;84;31178;-83
2021/05/12 07:18:01;;;;;;;14.58;8.65;;;;;;;24.12;47.74;99477.25;3430040;84;98332;-84
2021/05/12 07:23:09;;;;;;;17.10;8.98;;;;;;;23.95;48.21;99486.09;3417083;85;29927;-84
2021/05/12 07:28:10;;;;;;;13.20;8.93;;;;;;;23.80;48.83;99483.93;3413950;84;98757;-82
2021/05/12 07:33:12;;;;;;;13.98;8.90;;;;;;;23.47;49.38;99490.45;3436634;84;29067;-83
2021/05/12 07:38:13;;;;;;;15.53;9.33;;;;;;;23.06;50.36;99490.88;3431740;83;98723;-83
2021/05/12 07:43:14;;;;;;;14.18;8.88;;;;;;;23.23;50.58;99494.81;3448587;84;30523;-83
2021/05/12 07:48:16;;;;;;;13.32;8.75;;;;;;;23.16;50.90;99504.22;3443264;83;98889;-83
2021/05/12 07:53:16;;;;;;;15.63;10.58;;;;;;;23.07;51.55;99491.05;3453554;84;31813;-82
2021/05/12 07:58:17;;;;;;;15.88;10.63;;;;;;;23.05;51.89;99500.56;3450353;83;98929;-83
2021/05/12 08:03:18;;;;;;;16.65;10.68;;;;;;;23.08;52.13;99498.21;3455344;84;29981;-83
2021/05/12 08:08:19;;;;;;;15.78;11.22;;;;;;;23.19;52.33;99501.86;3439128;84;99212;-85
2021/05/12 08:13:20;;;;;;;14.90;10.45;;;;;;;23.64;52.29;99502.10;3451162;84;28095;-85
2021/05/12 08:18:20;;;;;;;14.65;9.10;;;;;;;24.06;51.92;99503.91;3446507;84;98804;-84
2021/05/12 08:23:22;;;;;;;13.50;10.25;;;;;;;24.60;51.35;99503.70;3451118;84;35488;-83
2021/05/12 08:28:23;;;;;;;20.32;11.85;;;;;;;25.31;50.61;99505.89;3443820;83;98889;-84
2021/05/12 08:33:24;;;;;;;17.30;10.90;;;;;;;26.68;50.61;99508.81;3419606;84;35637;-83
2021/05/12 08:38:25;;;;;;;18.35;12.70;;;;;;;26.68;50.61;99508.81;3378701;85;98802;-84
2021/05/12 08:43:28;;;;;;;17.48;11.80;;;;;;;27.51;48.73;99512.55;3383671;86;35171;-87
2021/05/12 08:48:30;;;;;;;15.32;12.53;;;;;;;27.60;48.65;99514.34;3387289;86;98876;-83
2021/05/12 08:53:31;;;;;;;15.13;9.63;;;;;;;28.01;47.48;99509.70;3390441;86;35761;-83
2021/05/12 08:58:33;;;;;;;15.25;10.32;;;;;;;28.47;47.95;99510.61;3400165;85;98799;-85
2021/05/12 09:03:34;;;;;;;11.33;8.98;;;;;;;29.21;47.66;99507.65;3403174;85;35045;-84
2021/05/12 09:08:36;;;;;;;16.52;10.23;;;;;;;29.68;46.99;99507.66;3401706;85;99239;-82
2021/05/12 09:13:39;;;;;;;13.32;7.90;;;;;;;30.35;44.80;99508.55;3397736;84;35028;-82
2021/05/12 09:18:40;;;;;;;13.28;8.45;;;;;;;30.63;44.72;99512.55;3377005;85;98685;-84
2021/05/12 09:23:43;;;;;;;14.80;8.63;;;;;;;30.83;43.80;99502.80;3416415;85;35261;-83
2021/05/12 09:28:44;;;;;;;12.05;8.38;;;;;;;30.74;42.83;99516.70;3401260;85;98553;-83
2021/05/12 09:33:49;;;;;;;14.10;8.70;;;;;;;31.21;42.79;99512.83;3427812;83;35272;-83
2021/05/12 09:38:52;;;;;;;12.23;7.58;;;;;;;31.93;42.18;99524.56;3447118;83;98568;-83
2021/05/12 09:43:54;;;;;;;11.88;8.28;;;;;;;31.94;40.93;99525.34;3456269;83;35103;-83
2021/05/12 09:49:07;;;;;;;10.15;6.78;;;;;;;32.09;39.77;99513.52;3448501;83;98352;-83
2021/05/12 09:54:20;;;;;;;11.78;6.95;;;;;;;32.18;40.12;99523.71;3456708;83;35007;-83
2021/05/12 09:59:25;;;;;;;11.30;6.55;;;;;;;32.55;40.35;99522.09;3455405;83;98513;-82
2021/05/12 10:04:39;;;;;;;11.70;7.87;;;;;;;32.75;39.62;99519.99;3456457;83;35061;-82
2021/05/12 10:09:42;;;;;;;11.00;7.22;;;;;;;31.94;37.69;99523.25;3453938;83;98670;-83
2021/05/12 10:14:48;;;;;;;13.33;8.17;;;;;;;31.82;40.05;99523.34;3448958;83;26097;-83
2021/05/12 10:19:50;;;;;;;11.73;6.92;;;;;;;31.75;38.89;99525.41;3450888;84;98511;-82
2021/05/12 10:24:52;;;;;;;9.95;6.65;;;;;;;31.72;40.43;99522.19;3451640;83;35870;-81
2021/05/12 10:29:58;;;;;;;14.38;6.20;;;;;;;32.26;39.84;99521.12;3448204;84;98555;-82
2021/05/12 10:35:11;;;;;;;15.20;7.47;;;;;;;32.10;39.10;99520.00;3464272;83;35232;-82
2021/05/12 10:40:25;;;;;;;8.98;6.10;;;;;;;32.10;38.69;99515.05;3461218;83;98322;-82
2021/05/12 10:45:36;;;;;;;11.90;6.35;;;;;;;32.31;39.13;99513.13;3468295;83;26198;-82
2021/05/12 10:50:46;;;;;;;10.32;6.95;;;;;;;32.71;39.30;99519.55;3461548;83;98902;-81
2021/05/12 10:56:41;;;;;;;13.55;7.30;;;;;;;33.24;37.73;99502.44;3713833;77;32054;-81
2021/05/12 11:01:49;;;;;;;8.93;5.87;;;;;;;33.51;37.96;99503.20;3503380;83;26437;-82
2021/05/12 11:06:54;;;;;;;10.13;6.03;;;;;;;33.85;38.34;99501.06;3511257;81;99041;-82
2021/05/12 11:11:57;;;;;;;12.18;7.15;;;;;;;34.12;37.42;99498.13;3556402;81;26385;-83
2021/05/12 11:17:11;;;;;;;11.15;5.72;;;;;;;34.32;37.62;99501.59;3524300;81;99048;-84
2021/05/12 11:22:39;;;;;;;12.58;7.83;;;;;;;34.37;37.48;99497.81;3483863;82;25874;-82
2021/05/12 11:28:16;;;;;;;9.98;6.17;;;;;;;34.76;35.43;99496.70;3442889;83;99170;-82
2021/05/12 11:33:03;;;;;;;11.43;6.50;;;;;;;34.22;35.57;99497.69;3475850;83;25752;-83
2021/05/12 11:38:16;;;;;;;11.43;6.22;;;;;;;34.11;35.66;99494.39;3405998;83;99099;-82
2021/05/12 11:43:17;;;;;;;13.15;6.78;;;;;;;34.12;36.52;99498.13;3344820;85;26544;-82
2021/05/12 11:48:23;;;;;;;14.15;7.75;;;;;;;34.06;36.22;99495.31;3280141;86;99319;-83
2021/05/12 11:53:24;;;;;;;10.90;6.47;;;;;;;33.84;35.67;99483.81;3277911;88;26584;-82
2021/05/12 11:58:25;;;;;;;14.63;7.40;;;;;;;33.81;36.15;99486.38;3410739;84;99409;-81
2021/05/12 12:03:27;;;;;;;14.40;7.35;;;;;;;34.03;35.75;99479.28;3446972;84;26171;-83
2021/05/12 12:08:27;;;;;;;8.53;6.22;;;;;;;34.16;35.41;99477.09;3464380;83;98797;-81
2021/05/12 12:13:28;;;;;;;12.70;6.35;;;;;;;33.82;36.79;99469.34;3474243;83;32073;-82
2021/05/12 12:18:33;;;;;;;10.95;7.33;;;;;;;34.02;36.67;99453.48;3460383;83;99130;-82
2021/05/12 12:23:37;;;;;;;12.85;7.05;;;;;;;33.63;36.03;99462.31;3475413;83;25967;-83
2021/05/12 12:28:37;;;;;;;9.70;6.30;;;;;;;33.01;36.60;99450.11;3461362;83;99034;-83
2021/05/12 12:33:38;;;;;;;12.00;7.40;;;;;;;32.84;37.55;99459.69;3471896;83;26194;-84
2021/05/12 12:38:51;;;;;;;11.48;7.08;;;;;;;32.70;37.46;99456.08;3464229;83;98937;-83
2021/05/12 12:43:52;;;;;;;13.48;7.70;;;;;;;32.69;37.73;99455.98;3463443;83;28784;-83
2021/05/12 12:48:53;;;;;;;9.83;6.50;;;;;;;33.06;37.38;99447.77;3463884;83;99028;-83
2021/05/12 12:53:54;;;;;;;14.28;6.67;;;;;;;33.30;37.71;99425.41;3464207;83;25886;-81
2021/05/12 12:59:12;;;;;;;9.53;5.92;;;;;;;33.31;36.73;99446.92;3449780;83;98785;-82
2021/05/12 13:04:19;;;;;;;10.10;6.15;;;;;;;33.60;37.90;99440.59;3452356;83;26561;-82
2021/05/12 13:09:27;;;;;;;16.15;7.25;;;;;;;33.71;37.65;99441.72;3454068;83;121010;-83
2021/05/12 13:14:28;;;;;;;11.50;5.85;;;;;;;33.80;37.04;99436.32;3448169;83;25738;-82
2021/05/12 13:19:31;;;;;;;12.05;6.97;;;;;;;33.41;37.72;99443.66;3454136;84;98807;-83
2021/05/12 13:24:32;;;;;;;9.85;7.10;;;;;;;33.24;37.81;99441.12;3463702;83;25930;-82
2021/05/12 13:29:38;;;;;;;10.25;6.85;;;;;;;33.13;37.90;99435.02;3455910;84;98697;-82
2021/05/12 13:34:39;;;;;;;11.03;5.97;;;;;;;32.83;38.01;99428.23;3450876;83;26162;-82
2021/05/12 13:39:40;;;;;;;13.65;7.72;;;;;;;32.39;38.52;99428.56;3445893;83;98914;-82
2021/05/12 13:44:41;;;;;;;11.75;7.03;;;;;;;32.50;37.94;99418.34;3467026;83;26050;-82
2021/05/12 13:49:42;;;;;;;22.75;8.15;;;;;;;32.65;38.78;99424.23;3450103;83;98623;-83
2021/05/12 13:54:48;;;;;;;11.75;7.05;;;;;;;32.81;37.38;99408.09;3460789;84;31676;-82
2021/05/12 14:04:49;;;;;;;16.60;6.47;;;;;;;32.59;37.49;99405.72;3406868;85;33028;-83
2021/05/12 14:09:51;;;;;;;14.70;7.70;;;;;;;32.06;40.50;99407.88;3371353;85;98783;-82
2021/05/12 14:15:01;;;;;;;13.70;6.65;;;;;;;31.76;39.88;99401.73;3374942;86;25833;-81
2021/05/12 14:19:58;;;;;;;11.93;7.40;;;;;;;31.75;40.49;99393.74;3447902;84;98938;-82
2021/05/12 14:24:58;;;;;;;13.20;6.50;;;;;;;31.80;40.51;99392.88;3473546;83;25769;-81
2021/05/12 14:30:03;;;;;;;11.30;6.45;;;;;;;31.46;41.21;99391.30;3470824;84;98983;-81
2021/05/12 14:35:03;;;;;;;12.53;8.68;;;;;;;31.40;41.79;99385.59;3472017;84;25724;-81
2021/05/12 14:40:05;;;;;;;12.85;6.30;;;;;;;31.24;41.36;99387.44;3463643;82;98850;-80
2021/05/12 14:45:06;;;;;;;9.98;5.15;;;;;;;31.02;42.04;99384.95;3473223;83;25779;-81
2021/05/12 14:50:09;;;;;;;14.98;7.62;;;;;;;30.92;43.06;99383.03;3465624;83;99043;-80
2021/05/12 15:00:24;;;;;;;10.82;7.40;;;;;;;30.45;42.90;99369.16;3547073;81;98718;-81
2021/05/12 15:10:24;;;;;;;11.88;6.95;;;;;;;30.00;44.19;99353.98;3549045;81;98703;-82
2021/05/12 15:15:25;;;;;;;12.70;7.35;;;;;;;29.79;44.47;99353.73;3558855;81;31669;-84
2021/05/12 15:20:26;;;;;;;13.40;6.97;;;;;;;29.68;44.90;99351.03;3550190;81;98659;-82
2021/05/12 15:25:27;;;;;;;14.63;8.18;;;;;;;29.43;44.91;99351.55;3555798;81;31702;-81
2021/05/12 15:30:28;;;;;;;14.73;9.73;;;;;;;29.30;45.45;99349.99;3549933;81;98649;-80
2021/05/12 15:35:29;;;;;;;14.00;8.50;;;;;;;29.20;45.55;99350.25;3556965;81;26181;-81
2021/05/12 15:40:30;;;;;;;13.90;7.65;;;;;;;29.06;45.34;99352.81;3552907;82;98873;-81
2021/05/12 15:45:31;;;;;;;13.15;6.87;;;;;;;29.01;45.96;99354.41;3555931;81;31604;-81
2021/05/12 15:50:31;;;;;;;13.00;7.80;;;;;;;28.76;46.25;99360.52;3551580;81;99228;-81
2021/05/12 15:55:34;;;;;;;11.75;8.35;;;;;;;28.51;46.82;99349.75;3540503;82;34907;-81
2021/05/12 16:00:37;;;;;;;14.10;8.68;;;;;;;28.32;46.95;99355.88;3516967;82;98714;-81
2021/05/12 16:05:38;;;;;;;15.38;9.68;;;;;;;28.05;47.23;99348.95;3517582;83;26196;-81
2021/05/12 16:10:39;;;;;;;13.68;9.00;;;;;;;27.81;47.80;99347.39;3516295;82;98932;-82
2021/05/12 16:15:40;;;;;;;14.53;8.00;;;;;;;27.58;48.32;99344.49;3523507;82;34875;-82
2021/05/12 16:20:41;;;;;;;13.60;8.23;;;;;;;27.23;49.01;99342.27;3512862;82;98922;-80
2021/05/12 16:25:42;;;;;;;12.70;9.30;;;;;;;26.85;50.40;99343.04;3524466;82;34810;-80
2021/05/12 16:30:42;;;;;;;16.75;9.80;;;;;;;26.65;51.11;99342.53;3520462;82;98785;-82
2021/05/12 16:35:45;;;;;;;13.90;9.45;;;;;;;26.52;51.40;99343.62;3514430;82;34884;-81
2021/05/12 16:40:46;;;;;;;12.43;8.75;;;;;;;26.39;51.84;99345.55;3512458;82;98879;-81
2021/05/12 16:45:48;;;;;;;12.10;8.83;;;;;;;26.25;52.33;99343.71;3524296;82;34814;-83
2021/05/12 16:50:50;;;;;;;15.35;8.38;;;;;;;26.21;52.58;99341.77;3513245;82;98796;-82
2021/05/12 16:55:51;;;;;;;15.28;9.75;;;;;;;26.10;52.95;99336.10;3532289;82;35933;-84
2021/05/12 17:00:52;;;;;;;18.30;10.30;;;;;;;25.91;53.52;99325.16;3563145;81;98678;-83
2021/05/12 17:05:53;;;;;;;13.60;8.63;;;;;;;25.87;53.57;99320.99;3552852;81;35250;-82
2021/05/12 17:10:56;;;;;;;17.30;9.90;;;;;;;25.70;53.99;99335.04;3546370;81;98801;-81
2021/05/12 17:15:56;;;;;;;11.00;8.45;;;;;;;25.57;54.30;99350.23;3554758;81;99016;-82
2021/05/12 17:20:58;;;;;;;18.62;9.88;;;;;;;25.43;54.61;99346.16;3606000;80;34841;-82
2021/05/12 17:25:59;;;;;;;19.77;11.83;;;;;;;25.29;55.20;99354.16;3578388;80;98951;-83
2021/05/12 17:31:00;;;;;;;17.82;10.03;;;;;;;24.80;59.09;99398.15;3559311;81;34811;-82
2021/05/12 17:36:01;;;;;;;19.50;12.80;;;;;;;24.11;62.73;99407.63;3543912;81;98894;-81
2021/05/12 17:41:02;;;;;;;25.85;13.50;;;;;;;23.04;65.41;99388.81;3500821;83;34949;-82
2021/05/12 17:46:02;;;;;;;21.23;13.58;;;;;;;22.97;65.92;99383.58;3490067;83;99267;-82
2021/05/12 17:51:05;;;;;;;20.72;15.03;;;;;;;22.88;66.00;99336.76;3504577;81;33601;-80
2021/05/12 17:56:06;;;;;;;21.10;15.13;;;;;;;23.01;66.49;99348.46;3494767;81;99327;-81
2021/05/12 18:01:06;;;;;;;23.98;14.15;;;;;;;22.97;67.03;99351.30;3500616;83;34437;-81
2021/05/12 18:06:09;;;;;;;18.87;13.65;;;;;;;22.78;69.06;99358.41;3488007;83;99346;-81
2021/05/12 18:11:18;;;;;;;20.02;14.43;;;;;;;22.57;68.48;99378.55;3474140;83;34631;-82
2021/05/12 18:21:32;;;;;;;20.87;14.70;;;;;;;22.25;68.80;99360.48;3504234;83;26159;-82
2021/05/12 18:26:33;;;;;;;19.12;12.78;;;;;;;22.23;68.79;99367.97;3497297;81;99190;-81
2021/05/12 18:31:33;;;;;;;16.70;13.40;;;;;;;22.11;68.95;99362.01;3501784;83;35515;-81
2021/05/12 18:36:46;;;;;;;18.67;14.25;;;;;;;22.01;69.13;99361.93;3437159;83;99314;-81
2021/05/12 18:41:46;;;;;;;17.90;14.38;;;;;;;21.85;69.64;99355.37;3413795;84;25882;-81
2021/05/12 18:47:00;;;;;;;19.10;14.80;;;;;;;21.74;70.02;99361.39;3429511;84;99329;-81
2021/05/12 18:51:55;;;;;;;16.90;14.35;;;;;;;21.66;69.82;99355.34;3442543;84;35159;-81
2021/05/12 18:56:55;;;;;;;19.57;14.07;;;;;;;21.54;70.18;99350.76;3408929;83;99210;-81
2021/05/12 19:01:56;;;;;;;19.50;15.25;;;;;;;21.46;70.22;99359.96;3396879;86;34801;-81
2021/05/12 19:07:03;;;;;;;17.33;14.53;;;;;;;21.34;70.67;99361.77;3391403;85;99324;-81
2021/05/12 19:12:08;;;;;;;17.50;14.65;;;;;;;21.26;70.78;99361.19;3400130;85;34957;-80
2021/05/12 19:17:02;;;;;;;18.23;14.23;;;;;;;21.12;71.21;99368.86;3394597;85;99473;-79
2021/05/12 19:22:10;;;;;;;18.45;14.68;;;;;;;20.97;71.65;99369.38;3399668;85;34899;-79
2021/05/12 19:27:57;;;;;;;17.75;13.75;;;;;;;20.85;71.70;99372.52;3383842;85;99161;-80
2021/05/12 19:42:50;;;;;;;14.20;11.10;;;;;;;20.33;73.27;99393.91;3366237;86;34976;-80
2021/05/12 19:47:50;;;;;;;15.32;11.12;;;;;;;20.18;73.42;99397.80;3359300;86;98963;-79
2021/05/12 19:52:52;;;;;;;14.50;10.28;;;;;;;20.01;74.22;99394.50;3364479;86;33338;-80
2021/05/12 19:58:15;;;;;;;15.90;10.28;;;;;;;19.77;74.21;99399.76;3365077;85;99257;-80
2021/05/12 20:03:12;;;;;;;18.92;11.03;;;;;;;19.58;74.29;99399.58;3393568;85;34930;-80
2021/05/12 20:13:16;;;;;;;20.70;11.12;;;;;;;19.27;74.63;99396.08;3381193;85;34820;-80
2021/05/12 20:18:17;;;;;;;17.45;11.30;;;;;;;19.11;74.92;99384.54;3378250;85;99623;-80
2021/05/12 20:23:18;;;;;;;16.65;11.48;;;;;;;18.97;74.97;99385.72;3377389;86;33937;-80
2021/05/12 20:28:19;;;;;;;16.60;12.13;;;;;;;18.90;74.90;99382.59;3395093;84;99352;-80
2021/05/12 20:38:39;;;;;;;18.52;11.38;;;;;;;18.62;75.24;99382.90;3402138;84;99303;-80
2021/05/12 20:43:40;;;;;;;14.93;10.90;;;;;;;18.46;75.65;99379.72;3394764;85;34005;-79
2021/05/12 20:48:43;;;;;;;15.10;9.98;;;;;;;18.34;75.67;99372.82;3377680;83;99163;-79
2021/05/12 20:53:44;;;;;;;15.10;11.60;;;;;;;18.21;76.01;99373.48;3387201;85;34874;-81
2021/05/12 20:58:45;;;;;;;13.50;9.50;;;;;;;18.11;76.02;99368.47;3387857;84;99306;-80
2021/05/12 21:03:47;;;;;;;18.77;11.50;;;;;;;17.96;76.83;99364.62;3395194;85;34186;-79
2021/05/12 21:08:47;;;;;;;16.75;10.72;;;;;;;17.89;77.84;99357.94;3393672;85;99367;-80
2021/05/12 21:13:48;;;;;;;16.35;11.33;;;;;;;17.84;77.84;99345.98;3403083;85;31109;-80
2021/05/12 21:18:49;;;;;;;15.70;11.43;;;;;;;17.71;78.38;99352.83;3385298;85;99256;-79
2021/05/12 21:23:50;;;;;;;15.48;10.65;;;;;;;17.60;78.39;99349.63;3398465;85;29382;-80
2021/05/12 21:28:51;;;;;;;17.17;10.70;;;;;;;17.58;78.13;99334.77;3389427;85;99295;-79
2021/05/12 21:33:52;;;;;;;16.52;11.68;;;;;;;17.52;78.17;99340.75;3386665;85;28134;-81
2021/05/12 21:38:53;;;;;;;18.52;11.15;;;;;;;17.42;78.66;99340.48;3397753;85;99722;-81
2021/05/12 21:43:54;;;;;;;18.90;11.70;;;;;;;17.34;78.59;99330.02;3406777;85;33773;-80
2021/05/12 21:48:55;;;;;;;17.35;11.50;;;;;;;17.25;78.73;99327.14;3399027;85;99169;-81
2021/05/12 21:53:56;;;;;;;15.13;10.68;;;;;;;17.10;79.43;99318.50;3396095;85;32923;-80
2021/05/12 21:58:57;;;;;;;15.32;10.45;;;;;;;17.03;79.32;99322.11;3387570;85;98928;-82
2021/05/12 22:04:01;;;;;;;18.23;11.88;;;;;;;16.99;79.38;99311.72;3389339;85;29604;-81
2021/05/12 22:25:08;;;;;;;19.00;10.13;;;;;;;16.61;81.51;99299.84;3447322;84;32447;-81
2021/05/12 22:30:15;;;;;;;15.65;10.43;;;;;;;16.51;81.60;99305.90;3426042;84;98685;-81
2021/05/12 22:35:25;;;;;;;13.28;9.05;;;;;;;16.44;81.50;99307.52;3452834;84;32457;-80
2021/05/12 22:40:28;;;;;;;15.08;10.18;;;;;;;16.35;81.60;99300.41;3438571;84;98897;-81
2021/05/12 22:45:30;;;;;;;15.85;10.13;;;;;;;16.25;81.29;99299.35;3487324;83;32673;-82
2021/05/12 22:50:35;;;;;;;16.57;9.03;;;;;;;16.17;81.55;99304.93;3444734;84;99084;-80
2021/05/12 23:00:48;;;;;;;14.38;9.30;;;;;;;16.03;81.41;99291.48;3414437;84;98735;-81
2021/05/12 23:05:51;;;;;;;13.83;8.80;;;;;;;15.97;81.56;99284.92;3443404;84;32502;-81
2021/05/12 23:10:52;;;;;;;14.00;8.80;;;;;;;15.90;81.38;99286.48;3440043;84;98490;-81
2021/05/12 23:15:53;;;;;;;14.20;9.23;;;;;;;15.88;81.08;99287.55;3450876;84;29671;-81
2021/05/12 23:20:54;;;;;;;13.03;8.35;;;;;;;15.91;81.22;99278.36;3444631;84;98721;-81
2021/05/12 23:25:54;;;;;;;15.63;10.07;;;;;;;15.87;81.19;99271.50;3437600;84;27754;-81
2021/05/12 23:30:55;;;;;;;14.43;9.13;;;;;;;15.88;80.74;99270.91;3433962;84;98960;-81
2021/05/12 23:35:56;;;;;;;12.57;8.03;;;;;;;15.78;80.64;99257.52;3439694;84;25750;-81
2021/05/12 23:40:56;;;;;;;14.17;8.57;;;;;;;15.73;80.33;99259.44;3448203;84;98423;-81
2021/05/12 23:45:57;;;;;;;14.58;8.48;;;;;;;15.68;80.43;99253.04;3433628;84;99028;-80
2021/05/12 23:50:58;;;;;;;11.30;7.37;;;;;;;15.61;80.42;99260.18;3453464;84;33466;-80
2021/05/12 23:55:59;;;;;;;13.70;8.63;;;;;;;15.56;80.35;99257.94;3445499;84;99096;-80
